createdAt,value
2018-01-12T00:00:26.196Z,0
2018-01-12T00:01:25.587Z,0
2018-01-12T00:02:26.095Z,0
2018-01-12T00:03:26.079Z,0
2018-01-12T00:04:26.071Z,0
2018-01-12T00:05:26.064Z,0
2018-01-12T00:06:26.038Z,0
2018-01-12T00:07:26.033Z,0
2018-01-12T00:08:25.787Z,0
2018-01-12T00:09:25.987Z,0
2018-01-12T00:10:25.978Z,0
2018-01-12T00:11:25.730Z,0
2018-01-12T00:12:25.961Z,0
2018-01-12T00:13:25.936Z,0
2018-01-12T00:14:25.931Z,0
2018-01-12T00:15:25.900Z,0
2018-01-12T00:16:25.152Z,0
2018-01-12T00:17:25.889Z,0
2018-01-12T00:18:25.874Z,0
2018-01-12T00:19:25.623Z,0
2018-01-12T00:20:25.853Z,0
2018-01-12T00:21:25.582Z,0
2018-01-12T00:22:25.548Z,0
2018-01-12T00:23:25.543Z,0
2018-01-12T00:24:25.786Z,0
2018-01-12T00:25:25.787Z,0
2018-01-12T00:26:25.796Z,0
2018-01-12T00:27:25.765Z,0
2018-01-12T00:28:25.746Z,0
2018-01-12T00:29:25.733Z,0
2018-01-12T00:30:25.728Z,0
2018-01-12T00:31:25.706Z,0
2018-01-12T00:32:25.427Z,0
2018-01-12T00:33:25.695Z,0
2018-01-12T00:34:25.668Z,0
2018-01-12T00:35:25.639Z,0
2018-01-12T00:36:25.635Z,0
2018-01-12T00:37:25.609Z,0
2018-01-12T00:38:25.630Z,0
2018-01-12T00:39:25.603Z,0
2018-01-12T00:40:25.577Z,0
2018-01-12T00:41:25.311Z,0
2018-01-12T00:42:25.302Z,0
2018-01-12T00:43:25.526Z,0
2018-01-12T00:44:25.274Z,0
2018-01-12T00:45:25.520Z,0
2018-01-12T00:46:25.506Z,0
2018-01-12T00:47:25.224Z,0
2018-01-12T00:48:25.473Z,0
2018-01-12T00:49:25.456Z,0
2018-01-12T00:50:25.441Z,0
2018-01-12T00:51:25.439Z,0
2018-01-12T00:52:25.415Z,0
2018-01-12T00:53:25.427Z,0
2018-01-12T00:54:25.183Z,0
2018-01-12T00:55:25.414Z,0
2018-01-12T00:56:25.350Z,0
2018-01-12T00:57:25.355Z,0
2018-01-12T00:58:25.321Z,0
2018-01-12T00:59:25.334Z,0
2018-01-12T01:00:25.330Z,0
2018-01-12T01:01:25.029Z,0
2018-01-12T01:02:25.267Z,0
2018-01-12T01:03:25.287Z,0
2018-01-12T01:04:25.261Z,0
2018-01-12T01:05:25.235Z,0
2018-01-12T01:06:25.215Z,0
2018-01-12T01:07:25.217Z,0
2018-01-12T01:08:25.477Z,0
2018-01-12T01:09:25.197Z,0
2018-01-12T01:10:25.171Z,0
2018-01-12T01:11:24.910Z,0
2018-01-12T01:12:24.902Z,0
2018-01-12T01:13:25.123Z,0
2018-01-12T01:14:25.101Z,0
2018-01-12T01:15:24.855Z,0
2018-01-12T01:16:24.862Z,0
2018-01-12T01:17:24.822Z,0
2018-01-12T01:18:25.071Z,0
2018-01-12T01:19:25.123Z,0
2018-01-12T01:20:25.029Z,0
2018-01-12T01:21:24.774Z,0
2018-01-12T01:22:25.013Z,0
2018-01-12T01:23:24.743Z,0
2018-01-12T01:24:24.711Z,0
2018-01-12T01:25:24.980Z,0
2018-01-12T01:26:24.942Z,0
2018-01-12T01:27:24.951Z,0
2018-01-12T01:28:24.910Z,0
2018-01-12T01:29:24.919Z,0
2018-01-12T01:30:24.895Z,0
2018-01-12T01:31:24.900Z,0
2018-01-12T01:32:24.898Z,0
2018-01-12T01:33:24.843Z,0
2018-01-12T01:34:24.865Z,0
2018-01-12T01:35:24.589Z,0
2018-01-12T01:36:24.564Z,0
2018-01-12T01:37:24.817Z,0
2018-01-12T01:38:24.802Z,0
2018-01-12T01:39:24.519Z,0
2018-01-12T01:40:24.764Z,0
2018-01-12T01:41:24.759Z,0
2018-01-12T01:42:24.732Z,0
2018-01-12T01:43:24.705Z,0
2018-01-12T01:44:24.767Z,0
2018-01-12T01:45:24.692Z,0
2018-01-12T01:46:24.429Z,0
2018-01-12T01:47:24.681Z,0
2018-01-12T01:48:24.643Z,0
2018-01-12T01:49:24.626Z,0
2018-01-12T01:50:24.625Z,0
2018-01-12T01:51:24.614Z,0
2018-01-12T01:52:24.585Z,0
2018-01-12T01:53:24.337Z,0
2018-01-12T01:54:24.599Z,0
2018-01-12T01:55:24.540Z,0
2018-01-12T01:56:24.535Z,0
2018-01-12T01:57:24.540Z,0
2018-01-12T01:58:24.513Z,0
2018-01-12T01:59:24.566Z,0
2018-01-12T02:00:24.224Z,0
2018-01-12T02:01:24.464Z,0
2018-01-12T02:02:24.479Z,0
2018-01-12T02:03:24.454Z,0
2018-01-12T02:04:24.454Z,0
2018-01-12T02:05:24.452Z,0
2018-01-12T02:06:24.142Z,0
2018-01-12T02:07:24.387Z,0
2018-01-12T02:08:24.110Z,0
2018-01-12T02:09:24.355Z,0
2018-01-12T02:10:24.101Z,0
2018-01-12T02:11:23.822Z,0
2018-01-12T02:12:24.054Z,0
2018-01-12T02:13:24.301Z,0
2018-01-12T02:14:24.297Z,0
2018-01-12T02:15:24.264Z,0
2018-01-12T02:16:23.996Z,0
2018-01-12T02:17:24.311Z,0
2018-01-12T02:18:24.217Z,0
2018-01-12T02:19:24.246Z,0
2018-01-12T02:20:24.200Z,0
2018-01-12T02:21:24.208Z,0
2018-01-12T02:22:24.182Z,0
2018-01-12T02:23:24.173Z,0
2018-01-12T02:24:24.162Z,0
2018-01-12T02:25:23.912Z,0
2018-01-12T02:26:24.123Z,0
2018-01-12T02:27:23.869Z,0
2018-01-12T02:28:24.083Z,0
2018-01-12T02:29:24.091Z,0
2018-01-12T02:30:24.119Z,0
2018-01-12T02:31:24.051Z,0
2018-01-12T02:32:24.041Z,0
2018-01-12T02:33:24.044Z,0
2018-01-12T02:34:23.755Z,0
2018-01-12T02:35:24.005Z,0
2018-01-12T02:36:23.995Z,0
2018-01-12T02:37:23.978Z,0
2018-01-12T02:38:23.716Z,0
2018-01-12T02:39:23.974Z,0
2018-01-12T02:40:23.929Z,0
2018-01-12T02:41:23.918Z,0
2018-01-12T02:42:23.912Z,0
2018-01-12T02:43:23.634Z,0
2018-01-12T02:44:23.628Z,0
2018-01-12T02:45:23.875Z,0
2018-01-12T02:46:23.873Z,0
2018-01-12T02:47:23.587Z,0
2018-01-12T02:48:23.841Z,0
2018-01-12T02:49:23.804Z,0
2018-01-12T02:50:23.806Z,0
2018-01-12T02:51:23.602Z,0
2018-01-12T02:52:23.783Z,0
2018-01-12T02:53:23.766Z,0
2018-01-12T02:54:23.756Z,0
2018-01-12T02:55:23.731Z,0
2018-01-12T02:56:23.717Z,0
2018-01-12T02:57:23.705Z,0
2018-01-12T02:58:23.421Z,0
2018-01-12T02:59:23.423Z,0
2018-01-12T03:00:23.645Z,0
2018-01-12T03:01:23.669Z,0
2018-01-12T03:02:23.372Z,0
2018-01-12T03:03:23.626Z,0
2018-01-12T03:04:23.616Z,0
2018-01-12T03:05:23.613Z,0
2018-01-12T03:06:23.325Z,0
2018-01-12T03:07:23.575Z,0
2018-01-12T03:08:23.283Z,0
2018-01-12T03:09:23.535Z,0
2018-01-12T03:10:23.015Z,0
2018-01-12T03:11:23.511Z,0
2018-01-12T03:12:23.501Z,0
2018-01-12T03:13:22.977Z,0
2018-01-12T03:14:23.476Z,0
2018-01-12T03:15:23.209Z,0
2018-01-12T03:16:23.189Z,0
2018-01-12T03:17:23.442Z,0
2018-01-12T03:18:23.472Z,0
2018-01-12T03:19:23.413Z,0
2018-01-12T03:20:23.393Z,0
2018-01-12T03:21:23.387Z,0
2018-01-12T03:22:23.378Z,0
2018-01-12T03:23:23.351Z,0
2018-01-12T03:24:23.081Z,0
2018-01-12T03:25:23.560Z,0
2018-01-12T03:26:23.040Z,0
2018-01-12T03:27:23.300Z,0
2018-01-12T03:28:23.289Z,0
2018-01-12T03:29:23.261Z,0
2018-01-12T03:30:23.276Z,0
2018-01-12T03:31:23.255Z,0
2018-01-12T03:32:23.010Z,0
2018-01-12T03:33:23.206Z,0
2018-01-12T03:34:23.185Z,0
2018-01-12T03:35:23.200Z,0
2018-01-12T03:36:23.165Z,0
2018-01-12T03:37:23.162Z,0
2018-01-12T03:38:23.161Z,0
2018-01-12T03:39:23.122Z,0
2018-01-12T03:40:23.139Z,0
2018-01-12T03:41:23.113Z,0
2018-01-12T03:42:23.081Z,0
2018-01-12T03:43:23.060Z,0
2018-01-12T03:44:23.065Z,0
2018-01-12T03:45:23.052Z,0
2018-01-12T03:46:23.051Z,0
2018-01-12T03:47:23.007Z,0
2018-01-12T03:48:23.003Z,0
2018-01-12T03:49:22.987Z,0
2018-01-12T03:50:22.971Z,0
2018-01-12T03:51:22.971Z,0
2018-01-12T03:52:22.949Z,0
2018-01-12T03:53:22.969Z,0
2018-01-12T03:54:22.914Z,0
2018-01-12T03:55:22.906Z,0
2018-01-12T03:56:22.884Z,0
2018-01-12T03:57:22.884Z,0
2018-01-12T03:58:22.858Z,0
2018-01-12T03:59:22.854Z,0
2018-01-12T04:00:22.839Z,0
2018-01-12T04:01:22.813Z,0
2018-01-12T04:02:22.809Z,0
2018-01-12T04:03:22.799Z,0
2018-01-12T04:04:22.538Z,0
2018-01-12T04:05:22.766Z,0
2018-01-12T04:06:22.755Z,0
2018-01-12T04:07:22.750Z,0
2018-01-12T04:08:22.712Z,0
2018-01-12T04:09:22.695Z,0
2018-01-12T04:10:22.698Z,0
2018-01-12T04:11:22.445Z,0
2018-01-12T04:12:22.672Z,0
2018-01-12T04:13:22.397Z,0
2018-01-12T04:14:22.653Z,0
2018-01-12T04:15:22.621Z,0
2018-01-12T04:16:22.630Z,0
2018-01-12T04:17:22.592Z,0
2018-01-12T04:18:22.575Z,0
2018-01-12T04:19:22.580Z,0
2018-01-12T04:20:22.559Z,0
2018-01-12T04:21:22.559Z,0
2018-01-12T04:22:22.295Z,0
2018-01-12T04:23:22.534Z,0
2018-01-12T04:24:22.490Z,0
2018-01-12T04:25:22.479Z,0
2018-01-12T04:26:22.195Z,0
2018-01-12T04:27:22.441Z,0
2018-01-12T04:28:22.464Z,0
2018-01-12T04:29:22.168Z,0
2018-01-12T04:30:22.409Z,0
2018-01-12T04:31:22.396Z,0
2018-01-12T04:32:22.378Z,0
2018-01-12T04:33:21.849Z,0
2018-01-12T04:34:22.353Z,0
2018-01-12T04:35:22.367Z,0
2018-01-12T04:36:22.323Z,0
2018-01-12T04:37:22.324Z,0
2018-01-12T04:38:22.035Z,0
2018-01-12T04:39:22.319Z,0
2018-01-12T04:40:22.269Z,0
2018-01-12T04:41:22.005Z,0
2018-01-12T04:42:22.265Z,0
2018-01-12T04:43:22.234Z,0
2018-01-12T04:44:22.211Z,0
2018-01-12T04:45:22.212Z,0
2018-01-12T04:46:21.927Z,0
2018-01-12T04:47:21.900Z,0
2018-01-12T04:48:22.167Z,0
2018-01-12T04:49:22.168Z,0
2018-01-12T04:50:22.126Z,0
2018-01-12T04:51:22.123Z,0
2018-01-12T04:52:22.091Z,0
2018-01-12T04:53:22.100Z,0
2018-01-12T04:54:22.075Z,0
2018-01-12T04:55:21.810Z,0
2018-01-12T04:56:21.793Z,0
2018-01-12T04:57:22.034Z,0
2018-01-12T04:58:21.769Z,0
2018-01-12T04:59:21.750Z,0
2018-01-12T05:00:22.006Z,0
2018-01-12T05:01:21.980Z,0
2018-01-12T05:02:21.708Z,0
2018-01-12T05:03:21.963Z,0
2018-01-12T05:04:21.942Z,0
2018-01-12T05:05:21.908Z,0
2018-01-12T05:06:21.917Z,0
2018-01-12T05:07:21.904Z,0
2018-01-12T05:08:21.887Z,0
2018-01-12T05:09:21.887Z,0
2018-01-12T05:10:21.845Z,0
2018-01-12T05:11:21.580Z,0
2018-01-12T05:12:21.580Z,0
2018-01-12T05:13:21.823Z,0
2018-01-12T05:14:21.802Z,0
2018-01-12T05:15:21.590Z,0
2018-01-12T05:16:21.516Z,0
2018-01-12T05:17:21.508Z,0
2018-01-12T05:18:21.748Z,0
2018-01-12T05:19:21.725Z,0
2018-01-12T05:20:21.721Z,0
2018-01-12T05:21:21.450Z,0
2018-01-12T05:22:21.409Z,0
2018-01-12T05:23:21.665Z,0
2018-01-12T05:24:21.406Z,0
2018-01-12T05:25:21.644Z,0
2018-01-12T05:26:21.640Z,0
2018-01-12T05:27:21.348Z,0
2018-01-12T05:28:21.594Z,0
2018-01-12T05:29:21.321Z,0
2018-01-12T05:30:21.578Z,0
2018-01-12T05:31:21.302Z,0
2018-01-12T05:32:21.536Z,0
2018-01-12T05:33:21.260Z,0
2018-01-12T05:34:21.508Z,0
2018-01-12T05:35:21.486Z,0
2018-01-12T05:36:21.499Z,0
2018-01-12T05:37:21.466Z,0
2018-01-12T05:38:21.442Z,0
2018-01-12T05:39:21.436Z,0
2018-01-12T05:40:21.432Z,0
2018-01-12T05:41:21.151Z,0
2018-01-12T05:42:21.415Z,0
2018-01-12T05:43:21.364Z,0
2018-01-12T05:44:21.351Z,0
2018-01-12T05:45:21.355Z,0
2018-01-12T05:46:21.081Z,0
2018-01-12T05:47:21.315Z,0
2018-01-12T05:48:21.304Z,0
2018-01-12T05:49:21.303Z,0
2018-01-12T05:50:21.273Z,0
2018-01-12T05:51:21.007Z,0
2018-01-12T05:52:21.272Z,0
2018-01-12T05:53:21.259Z,0
2018-01-12T05:54:21.236Z,0
2018-01-12T05:55:21.208Z,0
2018-01-12T05:56:21.191Z,0
2018-01-12T05:57:21.169Z,0
2018-01-12T05:58:21.188Z,0
2018-01-12T05:59:21.151Z,0
2018-01-12T06:00:20.882Z,0
2018-01-12T06:01:21.182Z,0
2018-01-12T06:02:21.118Z,0
2018-01-12T06:03:20.855Z,0
2018-01-12T06:04:20.825Z,0
2018-01-12T06:05:20.826Z,0
2018-01-12T06:06:21.055Z,0
2018-01-12T06:07:20.781Z,0
2018-01-12T06:08:21.047Z,0
2018-01-12T06:09:21.011Z,0
2018-01-12T06:10:20.740Z,0
2018-01-12T06:11:20.994Z,0
2018-01-12T06:12:20.966Z,0
2018-01-12T06:13:20.696Z,0
2018-01-12T06:14:20.929Z,0
2018-01-12T06:15:20.931Z,0
2018-01-12T06:16:20.665Z,0
2018-01-12T06:17:20.627Z,0
2018-01-12T06:18:20.893Z,0
2018-01-12T06:19:20.875Z,0
2018-01-12T06:20:20.876Z,0
2018-01-12T06:21:20.850Z,0
2018-01-12T06:22:20.819Z,0
2018-01-12T06:23:20.900Z,0
2018-01-12T06:24:20.789Z,0
2018-01-12T06:25:20.774Z,0
2018-01-12T06:26:20.775Z,0
2018-01-12T06:27:20.761Z,0
2018-01-12T06:28:20.731Z,0
2018-01-12T06:29:20.727Z,0
2018-01-12T06:30:20.705Z,0
2018-01-12T06:31:20.715Z,0
2018-01-12T06:32:20.694Z,0
2018-01-12T06:33:20.679Z,0
2018-01-12T06:34:20.677Z,0
2018-01-12T06:35:20.648Z,0
2018-01-12T06:36:20.663Z,0
2018-01-12T06:37:20.654Z,0
2018-01-12T06:38:20.614Z,0
2018-01-12T06:39:20.638Z,0
2018-01-12T06:40:20.067Z,0
2018-01-12T06:41:20.542Z,0
2018-01-12T06:42:20.575Z,0
2018-01-12T06:43:20.521Z,0
2018-01-12T06:44:20.509Z,0
2018-01-12T06:45:20.505Z,0
2018-01-12T06:46:20.230Z,0
2018-01-12T06:47:20.210Z,0
2018-01-12T06:48:20.452Z,0
2018-01-12T06:49:20.468Z,0
2018-01-12T06:50:20.436Z,0
2018-01-12T06:51:20.411Z,0
2018-01-12T06:52:20.135Z,0
2018-01-12T06:53:20.134Z,0
2018-01-12T06:54:20.121Z,0
2018-01-12T06:55:20.361Z,0
2018-01-12T06:56:20.131Z,0
2018-01-12T06:57:20.320Z,0
2018-01-12T06:58:20.312Z,0
2018-01-12T06:59:20.284Z,0
2018-01-12T07:00:20.037Z,0
2018-01-12T07:01:20.298Z,0
2018-01-12T07:02:20.022Z,0
2018-01-12T07:03:20.234Z,0
2018-01-12T07:04:20.238Z,0
2018-01-12T07:05:20.232Z,0
2018-01-12T07:06:19.998Z,0
2018-01-12T07:07:20.182Z,0
2018-01-12T07:08:19.654Z,0
2018-01-12T07:09:20.208Z,0
2018-01-12T07:10:20.132Z,0
2018-01-12T07:11:20.147Z,0
2018-01-12T07:12:20.142Z,0
2018-01-12T07:13:19.833Z,0
2018-01-12T07:14:20.094Z,0
2018-01-12T07:15:19.850Z,0
2018-01-12T07:16:20.050Z,0
2018-01-12T07:17:19.784Z,0
2018-01-12T07:18:20.018Z,0
2018-01-12T07:19:20.016Z,0
2018-01-12T07:20:20.006Z,0
2018-01-12T07:21:19.989Z,0
2018-01-12T07:22:19.989Z,0
2018-01-12T07:23:19.948Z,0
2018-01-12T07:24:19.945Z,0
2018-01-12T07:25:19.924Z,5
2018-01-12T07:26:19.401Z,5
2018-01-12T07:27:19.940Z,5
2018-01-12T07:28:19.889Z,5
2018-01-12T07:29:19.871Z,5
2018-01-12T07:30:19.840Z,5
2018-01-12T07:31:19.928Z,5
2018-01-12T07:32:19.589Z,5
2018-01-12T07:33:19.821Z,5
2018-01-12T07:34:19.817Z,5
2018-01-12T07:35:19.780Z,5
2018-01-12T07:36:19.860Z,5
2018-01-12T07:37:19.749Z,10
2018-01-12T07:38:19.480Z,10
2018-01-12T07:39:19.809Z,10
2018-01-12T07:40:19.581Z,10
2018-01-12T07:41:19.799Z,15
2018-01-12T07:42:19.912Z,15
2018-01-12T07:43:19.839Z,15
2018-01-12T07:44:19.844Z,15
2018-01-12T07:45:19.515Z,15
2018-01-12T07:46:19.646Z,15
2018-01-12T07:47:19.649Z,10
2018-01-12T07:48:19.598Z,10
2018-01-12T07:49:19.586Z,10
2018-01-12T07:50:19.609Z,15
2018-01-12T07:51:19.673Z,15
2018-01-12T07:52:19.545Z,15
2018-01-12T07:53:19.693Z,15
2018-01-12T07:54:19.445Z,15
2018-01-12T07:55:19.629Z,15
2018-01-12T07:56:19.623Z,15
2018-01-12T07:57:19.078Z,15
2018-01-12T07:58:19.559Z,20
2018-01-12T07:59:19.656Z,20
2018-01-12T08:00:19.336Z,20
2018-01-12T08:01:19.570Z,20
2018-01-12T08:02:19.016Z,20
2018-01-12T08:03:19.503Z,25
2018-01-12T08:04:19.530Z,20
2018-01-12T08:05:19.191Z,20
2018-01-12T08:06:19.433Z,15
2018-01-12T08:07:19.475Z,15
2018-01-12T08:08:18.856Z,15
2018-01-12T08:09:18.888Z,15
2018-01-12T08:10:19.421Z,15
2018-01-12T08:11:19.092Z,15
2018-01-12T08:12:19.285Z,20
2018-01-12T08:13:19.295Z,20
2018-01-12T08:14:19.266Z,20
2018-01-12T08:15:19.440Z,20
2018-01-12T08:16:19.246Z,20
2018-01-12T08:17:19.184Z,15
2018-01-12T08:18:18.949Z,15
2018-01-12T08:19:19.145Z,15
2018-01-12T08:20:18.650Z,15
2018-01-12T08:21:18.869Z,15
2018-01-12T08:22:18.609Z,20
2018-01-12T08:23:19.107Z,20
2018-01-12T08:24:19.075Z,25
2018-01-12T08:25:18.844Z,25
2018-01-12T08:26:19.094Z,25
2018-01-12T08:27:19.031Z,25
2018-01-12T08:28:18.755Z,25
2018-01-12T08:29:19.010Z,30
2018-01-12T08:30:18.997Z,30
2018-01-12T08:31:18.771Z,30
2018-01-12T08:32:18.799Z,30
2018-01-12T08:33:18.974Z,30
2018-01-12T08:34:18.979Z,25
2018-01-12T08:35:18.929Z,30
2018-01-12T08:36:18.652Z,35
2018-01-12T08:37:18.892Z,35
2018-01-12T08:38:19.002Z,35
2018-01-12T08:39:18.601Z,35
2018-01-12T08:40:18.844Z,35
2018-01-12T08:41:18.832Z,35
2018-01-12T08:42:18.928Z,35
2018-01-12T08:43:18.813Z,35
2018-01-12T08:44:18.845Z,30
2018-01-12T08:45:18.844Z,35
2018-01-12T08:46:18.290Z,35
2018-01-12T08:47:18.503Z,30
2018-01-12T08:48:18.223Z,35
2018-01-12T08:49:18.725Z,35
2018-01-12T08:50:18.719Z,35
2018-01-12T08:51:18.422Z,35
2018-01-12T08:52:18.180Z,35
2018-01-12T08:53:18.148Z,35
2018-01-12T08:54:18.390Z,35
2018-01-12T08:55:18.643Z,35
2018-01-12T08:56:18.974Z,45
2018-01-12T08:57:18.097Z,40
2018-01-12T08:58:18.599Z,40
2018-01-12T08:59:18.568Z,45
2018-01-12T09:00:18.052Z,45
2018-01-12T09:01:18.585Z,40
2018-01-12T09:02:18.517Z,45
2018-01-12T09:03:18.532Z,45
2018-01-12T09:04:18.253Z,45
2018-01-12T09:05:17.978Z,45
2018-01-12T09:06:17.963Z,50
2018-01-12T09:07:18.186Z,55
2018-01-12T09:08:17.936Z,50
2018-01-12T09:09:18.435Z,50
2018-01-12T09:10:18.437Z,45
2018-01-12T09:11:18.425Z,55
2018-01-12T09:12:17.615Z,50
2018-01-12T09:13:18.365Z,50
2018-01-12T09:14:17.908Z,45
2018-01-12T09:15:18.098Z,45
2018-01-12T09:16:18.107Z,50
2018-01-12T09:17:18.344Z,55
2018-01-12T09:18:17.782Z,50
2018-01-12T09:19:18.307Z,50
2018-01-12T09:20:18.291Z,50
2018-01-12T09:21:18.019Z,45
2018-01-12T09:22:18.013Z,50
2018-01-12T09:23:18.279Z,45
2018-01-12T09:24:17.977Z,50
2018-01-12T09:25:17.689Z,50
2018-01-12T09:26:18.198Z,50
2018-01-12T09:27:18.243Z,50
2018-01-12T09:28:18.157Z,50
2018-01-12T09:29:17.890Z,50
2018-01-12T09:30:17.669Z,50
2018-01-12T09:31:18.149Z,50
2018-01-12T09:32:18.135Z,45
2018-01-12T09:33:17.841Z,45
2018-01-12T09:34:18.081Z,45
2018-01-12T09:35:17.820Z,50
2018-01-12T09:36:18.079Z,50
2018-01-12T09:37:18.263Z,55
2018-01-12T09:38:18.138Z,55
2018-01-12T09:39:17.749Z,60
2018-01-12T09:40:17.513Z,65
2018-01-12T09:41:17.990Z,70
2018-01-12T09:42:17.704Z,70
2018-01-12T09:43:17.696Z,65
2018-01-12T09:44:17.692Z,65
2018-01-12T09:45:17.413Z,60
2018-01-12T09:46:17.964Z,55
2018-01-12T09:47:17.649Z,55
2018-01-12T09:48:18.151Z,45
2018-01-12T09:49:17.885Z,50
2018-01-12T09:50:17.873Z,45
2018-01-12T09:51:17.685Z,50
2018-01-12T09:52:17.868Z,55
2018-01-12T09:53:17.299Z,55
2018-01-12T09:54:17.858Z,60
2018-01-12T09:55:17.828Z,50
2018-01-12T09:56:17.556Z,50
2018-01-12T09:57:17.321Z,50
2018-01-12T09:58:17.548Z,60
2018-01-12T09:59:17.833Z,60
2018-01-12T10:00:17.475Z,60
2018-01-12T10:01:17.451Z,60
2018-01-12T10:02:17.711Z,55
2018-01-12T10:03:17.474Z,70
2018-01-12T10:04:17.461Z,70
2018-01-12T10:05:17.207Z,65
2018-01-12T10:06:17.651Z,65
2018-01-12T10:07:17.397Z,60
2018-01-12T10:08:17.314Z,70
2018-01-12T10:09:17.290Z,65
2018-01-12T10:10:17.171Z,65
2018-01-12T10:11:17.864Z,65
2018-01-12T10:12:17.461Z,65
2018-01-12T10:13:17.032Z,60
2018-01-12T10:14:17.393Z,60
2018-01-12T10:15:17.331Z,60
2018-01-12T10:16:17.237Z,70
2018-01-12T10:17:17.487Z,70
2018-01-12T10:18:17.289Z,65
2018-01-12T10:19:17.533Z,70
2018-01-12T10:20:17.202Z,70
2018-01-12T10:21:17.255Z,65
2018-01-12T10:22:17.138Z,55
2018-01-12T10:23:17.426Z,55
2018-01-12T10:24:17.225Z,60
2018-01-12T10:25:16.875Z,70
2018-01-12T10:26:16.879Z,70
2018-01-12T10:27:17.136Z,70
2018-01-12T10:28:17.341Z,60
2018-01-12T10:29:17.362Z,65
2018-01-12T10:30:17.153Z,60
2018-01-12T10:31:17.053Z,60
2018-01-12T10:32:17.305Z,65
2018-01-12T10:33:17.328Z,65
2018-01-12T10:34:17.048Z,65
2018-01-12T10:35:16.988Z,60
2018-01-12T10:36:16.963Z,60
2018-01-12T10:37:17.244Z,50
2018-01-12T10:38:17.492Z,65
2018-01-12T10:39:17.250Z,60
2018-01-12T10:40:16.407Z,65
2018-01-12T10:41:16.917Z,65
2018-01-12T10:42:16.636Z,70
2018-01-12T10:43:16.652Z,70
2018-01-12T10:44:16.872Z,65
2018-01-12T10:45:16.825Z,60
2018-01-12T10:46:16.858Z,65
2018-01-12T10:47:16.811Z,60
2018-01-12T10:48:16.802Z,60
2018-01-12T10:49:16.534Z,55
2018-01-12T10:50:16.824Z,60
2018-01-12T10:51:17.036Z,65
2018-01-12T10:52:16.740Z,60
2018-01-12T10:53:16.733Z,60
2018-01-12T10:54:16.706Z,60
2018-01-12T10:55:16.688Z,65
2018-01-12T10:56:16.736Z,60
2018-01-12T10:57:16.929Z,65
2018-01-12T10:58:16.945Z,65
2018-01-12T10:59:16.644Z,65
2018-01-12T11:00:16.886Z,70
2018-01-12T11:01:16.900Z,70
2018-01-12T11:02:16.888Z,65
2018-01-12T11:03:16.532Z,65
2018-01-12T11:04:16.603Z,65
2018-01-12T11:05:16.858Z,65
2018-01-12T11:06:16.045Z,65
2018-01-12T11:07:16.537Z,60
2018-01-12T11:08:16.804Z,65
2018-01-12T11:09:16.242Z,70
2018-01-12T11:10:16.783Z,60
2018-01-12T11:11:16.752Z,55
2018-01-12T11:12:16.507Z,60
2018-01-12T11:13:16.717Z,60
2018-01-12T11:14:16.720Z,65
2018-01-12T11:15:16.431Z,70
2018-01-12T11:16:16.901Z,75
2018-01-12T11:17:16.694Z,70
2018-01-12T11:18:16.669Z,70
2018-01-12T11:19:16.632Z,65
2018-01-12T11:20:16.687Z,65
2018-01-12T11:21:16.616Z,65
2018-01-12T11:22:16.082Z,65
2018-01-12T11:23:16.589Z,65
2018-01-12T11:24:16.321Z,65
2018-01-12T11:25:16.603Z,65
2018-01-12T11:26:16.049Z,70
2018-01-12T11:27:16.588Z,70
2018-01-12T11:28:16.546Z,65
2018-01-12T11:29:16.521Z,65
2018-01-12T11:30:16.255Z,65
2018-01-12T11:31:16.497Z,70
2018-01-12T11:32:16.559Z,70
2018-01-12T11:33:16.434Z,70
2018-01-12T11:34:16.452Z,70
2018-01-12T11:35:16.183Z,70
2018-01-12T11:36:15.909Z,70
2018-01-12T11:37:15.897Z,65
2018-01-12T11:38:16.183Z,70
2018-01-12T11:39:16.348Z,70
2018-01-12T11:40:16.340Z,70
2018-01-12T11:41:16.072Z,65
2018-01-12T11:42:16.112Z,70
2018-01-12T11:43:16.347Z,70
2018-01-12T11:44:16.339Z,70
2018-01-12T11:45:16.040Z,60
2018-01-12T11:46:16.314Z,60
2018-01-12T11:47:16.254Z,65
2018-01-12T11:48:16.043Z,60
2018-01-12T11:49:16.323Z,60
2018-01-12T11:50:15.945Z,60
2018-01-12T11:51:16.232Z,55
2018-01-12T11:52:15.686Z,60
2018-01-12T11:53:16.303Z,55
2018-01-12T11:54:15.963Z,55
2018-01-12T11:55:16.196Z,55
2018-01-12T11:56:16.242Z,55
2018-01-12T11:57:15.877Z,55
2018-01-12T11:58:15.577Z,60
2018-01-12T11:59:15.367Z,55
2018-01-12T12:00:16.067Z,55
2018-01-12T12:01:16.080Z,55
2018-01-12T12:02:16.070Z,55
2018-01-12T12:03:16.058Z,55
2018-01-12T12:04:16.014Z,60
2018-01-12T12:05:15.505Z,60
2018-01-12T12:06:15.767Z,60
2018-01-12T12:07:15.452Z,60
2018-01-12T12:08:15.694Z,60
2018-01-12T12:09:15.725Z,60
2018-01-12T12:10:15.956Z,65
2018-01-12T12:11:15.402Z,60
2018-01-12T12:12:15.403Z,65
2018-01-12T12:13:15.906Z,65
2018-01-12T12:14:15.887Z,60
2018-01-12T12:15:15.902Z,60
2018-01-12T12:16:15.620Z,65
2018-01-12T12:17:15.603Z,65
2018-01-12T12:18:15.854Z,60
2018-01-12T12:19:15.295Z,65
2018-01-12T12:20:15.561Z,60
2018-01-12T12:21:15.282Z,55
2018-01-12T12:22:15.262Z,50
2018-01-12T12:23:16.148Z,60
2018-01-12T12:24:15.736Z,65
2018-01-12T12:25:15.744Z,70
2018-01-12T12:26:15.728Z,65
2018-01-12T12:27:15.714Z,60
2018-01-12T12:28:15.435Z,60
2018-01-12T12:29:15.393Z,50
2018-01-12T12:30:15.430Z,55
2018-01-12T12:31:15.160Z,55
2018-01-12T12:32:15.626Z,50
2018-01-12T12:33:15.884Z,50
2018-01-12T12:34:15.102Z,50
2018-01-12T12:35:14.797Z,50
2018-01-12T12:36:15.309Z,45
2018-01-12T12:37:15.054Z,55
2018-01-12T12:38:15.588Z,55
2018-01-12T12:39:15.592Z,55
2018-01-12T12:40:15.549Z,55
2018-01-12T12:41:15.346Z,60
2018-01-12T12:42:15.238Z,60
2018-01-12T12:43:15.525Z,50
2018-01-12T12:44:15.471Z,60
2018-01-12T12:45:15.200Z,55
2018-01-12T12:46:14.949Z,45
2018-01-12T12:47:15.419Z,45
2018-01-12T12:48:15.157Z,50
2018-01-12T12:49:15.448Z,45
2018-01-12T12:50:15.592Z,45
2018-01-12T12:51:15.387Z,45
2018-01-12T12:52:15.124Z,45
2018-01-12T12:53:15.084Z,40
2018-01-12T12:54:15.080Z,45
2018-01-12T12:55:15.072Z,50
2018-01-12T12:56:15.093Z,60
2018-01-12T12:57:15.014Z,60
2018-01-12T12:58:14.748Z,55
2018-01-12T12:59:14.724Z,50
2018-01-12T13:00:15.369Z,50
2018-01-12T13:01:15.058Z,50
2018-01-12T13:02:14.719Z,45
2018-01-12T13:03:15.194Z,45
2018-01-12T13:04:14.928Z,50
2018-01-12T13:05:14.903Z,45
2018-01-12T13:06:14.887Z,45
2018-01-12T13:07:14.906Z,45
2018-01-12T13:08:14.342Z,45
2018-01-12T13:09:14.602Z,45
2018-01-12T13:10:14.838Z,40
2018-01-12T13:11:14.836Z,35
2018-01-12T13:12:15.124Z,40
2018-01-12T13:13:15.062Z,40
2018-01-12T13:14:15.129Z,45
2018-01-12T13:15:14.770Z,45
2018-01-12T13:16:14.767Z,45
2018-01-12T13:17:14.748Z,45
2018-01-12T13:18:14.520Z,45
2018-01-12T13:19:15.074Z,40
2018-01-12T13:20:14.760Z,45
2018-01-12T13:21:14.691Z,45
2018-01-12T13:22:14.729Z,40
2018-01-12T13:23:14.710Z,40
2018-01-12T13:24:14.745Z,40
2018-01-12T13:25:14.854Z,40
2018-01-12T13:26:14.432Z,40
2018-01-12T13:27:14.354Z,45
2018-01-12T13:28:14.881Z,40
2018-01-12T13:29:14.075Z,45
2018-01-12T13:30:14.863Z,45
2018-01-12T13:31:14.288Z,45
2018-01-12T13:32:14.284Z,45
2018-01-12T13:33:14.572Z,45
2018-01-12T13:34:14.302Z,45
2018-01-12T13:35:14.498Z,40
2018-01-12T13:36:14.486Z,40
2018-01-12T13:37:14.472Z,35
2018-01-12T13:38:14.189Z,35
2018-01-12T13:39:14.739Z,30
2018-01-12T13:40:14.460Z,25
2018-01-12T13:41:14.196Z,25
2018-01-12T13:42:14.711Z,25
2018-01-12T13:43:14.378Z,25
2018-01-12T13:44:14.656Z,25
2018-01-12T13:45:14.656Z,25
2018-01-12T13:46:14.072Z,30
2018-01-12T13:47:14.330Z,25
2018-01-12T13:48:14.559Z,20
2018-01-12T13:49:14.376Z,25
2018-01-12T13:50:14.537Z,25
2018-01-12T13:51:14.283Z,25
2018-01-12T13:52:13.992Z,25
2018-01-12T13:53:14.247Z,25
2018-01-12T13:54:14.502Z,30
2018-01-12T13:55:14.224Z,25
2018-01-12T13:56:14.441Z,25
2018-01-12T13:57:14.198Z,25
2018-01-12T13:58:14.197Z,25
2018-01-12T13:59:14.181Z,25
2018-01-12T14:00:14.154Z,25
2018-01-12T14:01:14.400Z,25
2018-01-12T14:02:13.865Z,25
2018-01-12T14:03:14.377Z,25
2018-01-12T14:04:14.361Z,25
2018-01-12T14:05:14.066Z,20
2018-01-12T14:06:14.063Z,20
2018-01-12T14:07:14.066Z,20
2018-01-12T14:08:14.290Z,25
2018-01-12T14:09:14.016Z,20
2018-01-12T14:10:13.768Z,15
2018-01-12T14:11:14.256Z,15
2018-01-12T14:12:13.989Z,15
2018-01-12T14:13:14.307Z,15
2018-01-12T14:14:13.985Z,15
2018-01-12T14:15:13.952Z,15
2018-01-12T14:16:14.178Z,15
2018-01-12T14:17:14.196Z,15
2018-01-12T14:18:14.201Z,15
2018-01-12T14:19:13.901Z,15
2018-01-12T14:20:13.871Z,15
2018-01-12T14:21:14.134Z,10
2018-01-12T14:22:13.847Z,15
2018-01-12T14:23:13.907Z,15
2018-01-12T14:24:13.808Z,15
2018-01-12T14:25:13.529Z,15
2018-01-12T14:26:14.034Z,15
2018-01-12T14:27:13.527Z,10
2018-01-12T14:28:14.005Z,10
2018-01-12T14:29:13.823Z,15
2018-01-12T14:30:13.727Z,15
2018-01-12T14:31:13.954Z,10